sensor_id;sensor_type;location;lat;lon;timestamp;pressure;altitude;pressure_sealevel;temperature;humidity
70302;BME280;57706;56.326;43.882;2022-12-18T00:01:21;100820.06;;;-2.44;83.00
70302;BME280;57706;56.326;43.882;2022-12-18T00:03:48;100812.28;;;-2.42;82.54
70302;BME280;57706;56.326;43.882;2022-12-18T00:06:15;100805.31;;;-2.40;81.74
70302;BME280;57706;56.326;43.882;2022-12-18T00:08:42;100782.50;;;-2.48;81.88
70302;BME280;57706;56.326;43.882;2022-12-18T00:11:10;100776.78;;;-2.55;80.91
70302;BME280;57706;56.326;43.882;2022-12-18T00:13:38;100775.59;;;-2.47;82.19
70302;BME280;57706;56.326;43.882;2022-12-18T00:16:06;100776.22;;;-2.61;81.10
70302;BME280;57706;56.326;43.882;2022-12-18T00:18:32;100761.22;;;-2.52;81.89
70302;BME280;57706;56.326;43.882;2022-12-18T00:20:59;100759.41;;;-2.50;81.30
70302;BME280;57706;56.326;43.882;2022-12-18T00:23:28;100742.84;;;-2.44;81.35
70302;BME280;57706;56.326;43.882;2022-12-18T00:25:53;100734.91;;;-2.39;81.18
70302;BME280;57706;56.326;43.882;2022-12-18T00:28:19;100733.94;;;-2.37;81.63
70302;BME280;57706;56.326;43.882;2022-12-18T00:30:46;100719.19;;;-2.33;81.83
70302;BME280;57706;56.326;43.882;2022-12-18T00:33:12;100719.81;;;-2.47;81.05
70302;BME280;57706;56.326;43.882;2022-12-18T00:35:37;100701.59;;;-2.42;81.61
70302;BME280;57706;56.326;43.882;2022-12-18T00:38:03;100687.75;;;-2.40;81.36
70302;BME280;57706;56.326;43.882;2022-12-18T00:40:30;100681.75;;;-2.40;80.46
70302;BME280;57706;56.326;43.882;2022-12-18T00:42:56;100684.38;;;-2.42;80.00
70302;BME280;57706;56.326;43.882;2022-12-18T00:45:24;100682.81;;;-2.44;80.65
70302;BME280;57706;56.326;43.882;2022-12-18T00:47:50;100674.78;;;-2.38;80.91
70302;BME280;57706;56.326;43.882;2022-12-18T00:50:16;100661.31;;;-2.43;79.98
70302;BME280;57706;56.326;43.882;2022-12-18T00:52:43;100645.41;;;-2.34;80.47
70302;BME280;57706;56.326;43.882;2022-12-18T00:55:09;100628.91;;;-2.30;80.50
70302;BME280;57706;56.326;43.882;2022-12-18T00:57:35;100615.44;;;-2.35;79.39
70302;BME280;57706;56.326;43.882;2022-12-18T01:00:04;100604.81;;;-2.29;79.35
70302;BME280;57706;56.326;43.882;2022-12-18T01:02:30;100596.16;;;-2.45;79.90
70302;BME280;57706;56.326;43.882;2022-12-18T01:04:56;100579.50;;;-2.56;80.21
70302;BME280;57706;56.326;43.882;2022-12-18T01:07:22;100579.97;;;-2.47;80.66
70302;BME280;57706;56.326;43.882;2022-12-18T01:09:48;100570.97;;;-2.39;81.55
70302;BME280;57706;56.326;43.882;2022-12-18T01:12:13;100568.63;;;-2.43;80.52
70302;BME280;57706;56.326;43.882;2022-12-18T01:14:39;100557.34;;;-2.41;80.73
70302;BME280;57706;56.326;43.882;2022-12-18T01:17:05;100553.47;;;-2.32;81.04
70302;BME280;57706;56.326;43.882;2022-12-18T01:19:32;100557.88;;;-2.34;80.61
70302;BME280;57706;56.326;43.882;2022-12-18T01:21:59;100550.91;;;-2.32;80.79
70302;BME280;57706;56.326;43.882;2022-12-18T01:24:24;100552.72;;;-2.34;80.82
70302;BME280;57706;56.326;43.882;2022-12-18T01:26:50;100545.22;;;-2.39;80.64
70302;BME280;57706;56.326;43.882;2022-12-18T01:29:16;100542.56;;;-2.37;80.70
70302;BME280;57706;56.326;43.882;2022-12-18T01:31:42;100547.13;;;-2.25;81.22
70302;BME280;57706;56.326;43.882;2022-12-18T01:34:08;100542.88;;;-2.26;81.50
70302;BME280;57706;56.326;43.882;2022-12-18T01:36:37;100559.38;;;-2.30;80.06
70302;BME280;57706;56.326;43.882;2022-12-18T01:39:23;100551.66;;;-2.30;80.04
70302;BME280;57706;56.326;43.882;2022-12-18T01:41:49;100552.44;;;-2.28;80.30
70302;BME280;57706;56.326;43.882;2022-12-18T01:52:59;100485.94;;;-2.19;81.70
70302;BME280;57706;56.326;43.882;2022-12-18T01:55:28;100471.16;;;-2.33;80.36
70302;BME280;57706;56.326;43.882;2022-12-18T01:57:58;100470.16;;;-2.31;80.90
70302;BME280;57706;56.326;43.882;2022-12-18T02:00:26;100454.28;;;-2.39;83.10
70302;BME280;57706;56.326;43.882;2022-12-18T02:02:53;100447.41;;;-2.39;83.70
70302;BME280;57706;56.326;43.882;2022-12-18T02:05:26;100427.63;;;-2.38;82.83
70302;BME280;57706;56.326;43.882;2022-12-18T02:13:38;100407.69;;;-2.35;82.52
70302;BME280;57706;56.326;43.882;2022-12-18T02:16:29;100404.41;;;-2.21;83.06
70302;BME280;57706;56.326;43.882;2022-12-18T02:19:08;100399.84;;;-2.31;81.24
70302;BME280;57706;56.326;43.882;2022-12-18T02:21:47;100401.09;;;-2.23;82.92
70302;BME280;57706;56.326;43.882;2022-12-18T02:24:35;100414.66;;;-2.37;81.30
70302;BME280;57706;56.326;43.882;2022-12-18T02:27:09;100420.50;;;-2.33;81.93
70302;BME280;57706;56.326;43.882;2022-12-18T02:29:40;100411.88;;;-2.32;80.94
70302;BME280;57706;56.326;43.882;2022-12-18T02:32:11;100399.59;;;-2.27;81.68
70302;BME280;57706;56.326;43.882;2022-12-18T02:34:39;100383.78;;;-2.37;82.20
70302;BME280;57706;56.326;43.882;2022-12-18T02:37:12;100349.91;;;-2.29;82.55
70302;BME280;57706;56.326;43.882;2022-12-18T02:39:42;100333.38;;;-2.25;83.15
70302;BME280;57706;56.326;43.882;2022-12-18T02:42:11;100308.69;;;-2.45;82.54
70302;BME280;57706;56.326;43.882;2022-12-18T02:44:50;100287.09;;;-2.42;83.75
70302;BME280;57706;56.326;43.882;2022-12-18T02:47:22;100255.31;;;-2.41;82.37
70302;BME280;57706;56.326;43.882;2022-12-18T03:03:37;100169.03;;;-2.49;85.02
70302;BME280;57706;56.326;43.882;2022-12-18T03:06:24;100152.09;;;-2.53;83.51
70302;BME280;57706;56.326;43.882;2022-12-18T03:08:58;100134.31;;;-2.41;84.96
70302;BME280;57706;56.326;43.882;2022-12-18T03:11:28;100120.72;;;-2.43;84.00
70302;BME280;57706;56.326;43.882;2022-12-18T03:14:16;100100.50;;;-2.35;84.98
70302;BME280;57706;56.326;43.882;2022-12-18T03:16:45;100087.78;;;-2.38;84.54
70302;BME280;57706;56.326;43.882;2022-12-18T03:19:19;100092.13;;;-2.39;83.51
70302;BME280;57706;56.326;43.882;2022-12-18T03:21:51;100084.16;;;-2.34;83.06
70302;BME280;57706;56.326;43.882;2022-12-18T03:24:19;100081.22;;;-2.28;83.51
70302;BME280;57706;56.326;43.882;2022-12-18T03:26:51;100083.34;;;-2.51;82.17
70302;BME280;57706;56.326;43.882;2022-12-18T03:30:00;100098.50;;;-2.30;84.21
70302;BME280;57706;56.326;43.882;2022-12-18T03:33:02;100115.38;;;-2.24;81.58
70302;BME280;57706;56.326;43.882;2022-12-18T03:35:34;100119.34;;;-2.35;81.56
70302;BME280;57706;56.326;43.882;2022-12-18T03:38:03;100110.88;;;-2.37;80.63
70302;BME280;57706;56.326;43.882;2022-12-18T03:40:53;100125.75;;;-2.26;81.65
70302;BME280;57706;56.326;43.882;2022-12-18T03:43:45;100150.72;;;-2.12;83.19
70302;BME280;57706;56.326;43.882;2022-12-18T03:51:54;100114.34;;;-2.22;82.48
70302;BME280;57706;56.326;43.882;2022-12-18T03:54:23;100091.41;;;-2.10;82.65
70302;BME280;57706;56.326;43.882;2022-12-18T03:57:04;100066.94;;;-2.03;83.18
70302;BME280;57706;56.326;43.882;2022-12-18T03:59:34;100071.72;;;-1.97;83.07
70302;BME280;57706;56.326;43.882;2022-12-18T04:02:03;100077.59;;;-2.09;80.19
70302;BME280;57706;56.326;43.882;2022-12-18T04:04:31;100081.09;;;-2.10;81.41
70302;BME280;57706;56.326;43.882;2022-12-18T04:07:01;100082.75;;;-2.09;80.41
70302;BME280;57706;56.326;43.882;2022-12-18T04:09:30;100082.59;;;-1.91;82.43
70302;BME280;57706;56.326;43.882;2022-12-18T04:11:57;100087.19;;;-1.97;81.25
70302;BME280;57706;56.326;43.882;2022-12-18T04:14:23;100070.81;;;-1.96;80.74
70302;BME280;57706;56.326;43.882;2022-12-18T04:16:52;100065.88;;;-1.84;82.49
70302;BME280;57706;56.326;43.882;2022-12-18T04:19:23;100062.19;;;-1.95;80.00
70302;BME280;57706;56.326;43.882;2022-12-18T04:21:51;100058.31;;;-2.02;80.09
70302;BME280;57706;56.326;43.882;2022-12-18T04:24:17;100045.81;;;-1.94;80.95
70302;BME280;57706;56.326;43.882;2022-12-18T04:26:51;100050.41;;;-1.84;81.31
70302;BME280;57706;56.326;43.882;2022-12-18T04:29:23;100057.41;;;-1.86;80.18
70302;BME280;57706;56.326;43.882;2022-12-18T04:31:49;100046.00;;;-1.82;81.72
70302;BME280;57706;56.326;43.882;2022-12-18T04:34:15;100032.19;;;-1.81;81.02
70302;BME280;57706;56.326;43.882;2022-12-18T04:36:47;100029.22;;;-1.89;79.60
70302;BME280;57706;56.326;43.882;2022-12-18T04:39:14;100013.97;;;-1.78;81.35
70302;BME280;57706;56.326;43.882;2022-12-18T04:41:40;100013.59;;;-2.01;80.51
70302;BME280;57706;56.326;43.882;2022-12-18T04:44:08;100010.47;;;-1.77;81.42
70302;BME280;57706;56.326;43.882;2022-12-18T04:46:33;100011.41;;;-1.78;80.42
70302;BME280;57706;56.326;43.882;2022-12-18T04:48:59;100010.09;;;-1.71;81.75
70302;BME280;57706;56.326;43.882;2022-12-18T04:51:25;100018.28;;;-1.78;80.30
70302;BME280;57706;56.326;43.882;2022-12-18T04:53:51;100008.44;;;-1.72;80.34
70302;BME280;57706;56.326;43.882;2022-12-18T04:56:16;100004.31;;;-1.74;80.28
70302;BME280;57706;56.326;43.882;2022-12-18T04:58:43;100002.91;;;-1.66;82.13
70302;BME280;57706;56.326;43.882;2022-12-18T05:01:11;99990.59;;;-1.60;82.39
70302;BME280;57706;56.326;43.882;2022-12-18T05:03:37;99990.59;;;-1.60;80.63
70302;BME280;57706;56.326;43.882;2022-12-18T05:06:05;99991.88;;;-1.53;81.54
70302;BME280;57706;56.326;43.882;2022-12-18T05:08:32;99979.72;;;-1.66;80.67
70302;BME280;57706;56.326;43.882;2022-12-18T05:11:16;99980.19;;;-1.73;80.36
70302;BME280;57706;56.326;43.882;2022-12-18T05:13:42;99973.66;;;-1.64;80.81
70302;BME280;57706;56.326;43.882;2022-12-18T05:16:27;99971.81;;;-1.77;78.96
70302;BME280;57706;56.326;43.882;2022-12-18T05:18:53;99969.25;;;-1.77;79.65
70302;BME280;57706;56.326;43.882;2022-12-18T05:21:37;99968.31;;;-1.61;80.71
70302;BME280;57706;56.326;43.882;2022-12-18T05:24:03;99968.84;;;-1.56;79.96
70302;BME280;57706;56.326;43.882;2022-12-18T05:26:29;99964.63;;;-1.57;81.06
70302;BME280;57706;56.326;43.882;2022-12-18T05:28:55;99963.31;;;-1.50;80.71
70302;BME280;57706;56.326;43.882;2022-12-18T05:31:21;99958.00;;;-1.61;78.80
70302;BME280;57706;56.326;43.882;2022-12-18T05:33:49;99945.66;;;-1.56;80.93
70302;BME280;57706;56.326;43.882;2022-12-18T05:36:15;99941.22;;;-1.54;81.25
70302;BME280;57706;56.326;43.882;2022-12-18T05:38:41;99939.00;;;-1.46;80.73
70302;BME280;57706;56.326;43.882;2022-12-18T05:41:08;99928.88;;;-1.49;79.96
70302;BME280;57706;56.326;43.882;2022-12-18T05:43:40;99928.72;;;-1.60;78.70
70302;BME280;57706;56.326;43.882;2022-12-18T05:46:07;99926.44;;;-1.65;79.84
70302;BME280;57706;56.326;43.882;2022-12-18T05:48:34;99931.03;;;-1.56;80.01
70302;BME280;57706;56.326;43.882;2022-12-18T05:51:21;99921.00;;;-1.60;79.99
70302;BME280;57706;56.326;43.882;2022-12-18T05:53:48;99931.09;;;-1.43;80.90
70302;BME280;57706;56.326;43.882;2022-12-18T05:56:17;99930.06;;;-1.40;79.08
70302;BME280;57706;56.326;43.882;2022-12-18T05:58:43;99926.88;;;-1.58;78.01
70302;BME280;57706;56.326;43.882;2022-12-18T06:03:37;99924.38;;;-1.60;77.81
70302;BME280;57706;56.326;43.882;2022-12-18T06:06:03;99920.06;;;-1.59;78.69
70302;BME280;57706;56.326;43.882;2022-12-18T06:08:29;99904.06;;;-1.64;79.13
70302;BME280;57706;56.326;43.882;2022-12-18T06:10:55;99907.22;;;-1.74;78.46
70302;BME280;57706;56.326;43.882;2022-12-18T06:13:21;99906.91;;;-1.69;78.15
70302;BME280;57706;56.326;43.882;2022-12-18T06:15:47;99903.59;;;-1.57;79.40
70302;BME280;57706;56.326;43.882;2022-12-18T06:18:12;99901.66;;;-1.53;78.72
70302;BME280;57706;56.326;43.882;2022-12-18T06:20:38;99898.19;;;-1.67;78.45
70302;BME280;57706;56.326;43.882;2022-12-18T06:23:07;99904.03;;;-1.50;79.10
70302;BME280;57706;56.326;43.882;2022-12-18T06:25:36;99905.41;;;-1.59;79.63
70302;BME280;57706;56.326;43.882;2022-12-18T06:28:02;99896.97;;;-1.61;79.51
70302;BME280;57706;56.326;43.882;2022-12-18T06:30:28;99899.63;;;-1.62;78.20
70302;BME280;57706;56.326;43.882;2022-12-18T06:32:53;99892.38;;;-1.70;78.27
70302;BME280;57706;56.326;43.882;2022-12-18T06:35:19;99890.44;;;-1.67;78.86
70302;BME280;57706;56.326;43.882;2022-12-18T06:37:45;99881.38;;;-1.45;79.07
70302;BME280;57706;56.326;43.882;2022-12-18T06:40:10;99878.06;;;-1.47;80.01
70302;BME280;57706;56.326;43.882;2022-12-18T06:42:36;99859.06;;;-1.46;78.79
70302;BME280;57706;56.326;43.882;2022-12-18T06:45:02;99872.91;;;-1.47;77.95
70302;BME280;57706;56.326;43.882;2022-12-18T06:47:30;99875.41;;;-1.60;79.39
70302;BME280;57706;56.326;43.882;2022-12-18T06:49:55;99867.72;;;-1.47;79.59
70302;BME280;57706;56.326;43.882;2022-12-18T06:52:21;99865.88;;;-1.58;77.76
70302;BME280;57706;56.326;43.882;2022-12-18T06:54:47;99844.19;;;-1.55;78.23
70302;BME280;57706;56.326;43.882;2022-12-18T06:57:13;99847.88;;;-1.45;78.94
70302;BME280;57706;56.326;43.882;2022-12-18T06:59:38;99859.28;;;-1.49;78.14
70302;BME280;57706;56.326;43.882;2022-12-18T07:02:05;99839.09;;;-1.42;80.30
70302;BME280;57706;56.326;43.882;2022-12-18T07:04:31;99833.16;;;-1.30;81.00
70302;BME280;57706;56.326;43.882;2022-12-18T07:06:57;99829.06;;;-1.47;79.42
70302;BME280;57706;56.326;43.882;2022-12-18T07:09:24;99813.34;;;-1.29;79.22
70302;BME280;57706;56.326;43.882;2022-12-18T07:11:49;99824.44;;;-1.42;78.38
70302;BME280;57706;56.326;43.882;2022-12-18T07:14:15;99819.41;;;-1.30;77.94
70302;BME280;57706;56.326;43.882;2022-12-18T07:16:41;99815.91;;;-1.29;77.28
70302;BME280;57706;56.326;43.882;2022-12-18T07:19:07;99825.72;;;-1.34;78.08
70302;BME280;57706;56.326;43.882;2022-12-18T07:21:32;99814.31;;;-1.58;77.14
70302;BME280;57706;56.326;43.882;2022-12-18T07:23:58;99825.84;;;-1.50;77.37
70302;BME280;57706;56.326;43.882;2022-12-18T07:26:24;99817.13;;;-1.35;80.24
70302;BME280;57706;56.326;43.882;2022-12-18T07:28:55;99814.78;;;-1.25;79.52
70302;BME280;57706;56.326;43.882;2022-12-18T07:31:21;99801.19;;;-1.27;79.60
70302;BME280;57706;56.326;43.882;2022-12-18T07:33:47;99797.34;;;-1.34;77.09
70302;BME280;57706;56.326;43.882;2022-12-18T07:36:14;99789.34;;;-1.17;79.74
70302;BME280;57706;56.326;43.882;2022-12-18T07:38:40;99800.66;;;-1.32;78.89
70302;BME280;57706;56.326;43.882;2022-12-18T07:41:08;99791.06;;;-1.30;78.30
70302;BME280;57706;56.326;43.882;2022-12-18T07:43:35;99796.53;;;-1.22;79.73
70302;BME280;57706;56.326;43.882;2022-12-18T07:46:01;99802.19;;;-1.43;78.22
70302;BME280;57706;56.326;43.882;2022-12-18T07:48:28;99789.41;;;-1.31;80.73
70302;BME280;57706;56.326;43.882;2022-12-18T07:50:58;99782.78;;;-1.48;78.85
70302;BME280;57706;56.326;43.882;2022-12-18T07:53:24;99784.19;;;-1.57;77.87
70302;BME280;57706;56.326;43.882;2022-12-18T07:55:58;99775.16;;;-1.50;78.34
70302;BME280;57706;56.326;43.882;2022-12-18T07:58:24;99775.84;;;-1.48;79.01
70302;BME280;57706;56.326;43.882;2022-12-18T08:00:50;99769.00;;;-1.34;79.69
70302;BME280;57706;56.326;43.882;2022-12-18T08:03:16;99763.63;;;-1.31;79.68
70302;BME280;57706;56.326;43.882;2022-12-18T08:05:42;99768.16;;;-1.22;80.04
70302;BME280;57706;56.326;43.882;2022-12-18T08:08:07;99764.25;;;-1.15;78.26
70302;BME280;57706;56.326;43.882;2022-12-18T08:10:33;99769.94;;;-1.09;78.18
70302;BME280;57706;56.326;43.882;2022-12-18T08:12:59;99775.41;;;-1.01;79.21
70302;BME280;57706;56.326;43.882;2022-12-18T08:15:25;99767.78;;;-1.03;78.27
70302;BME280;57706;56.326;43.882;2022-12-18T08:17:50;99771.59;;;-1.08;77.72
70302;BME280;57706;56.326;43.882;2022-12-18T08:20:16;99773.75;;;-1.15;77.16
70302;BME280;57706;56.326;43.882;2022-12-18T08:22:44;99766.66;;;-1.12;78.33
70302;BME280;57706;56.326;43.882;2022-12-18T08:25:10;99770.66;;;-1.07;77.75
70302;BME280;57706;56.326;43.882;2022-12-18T08:27:36;99773.03;;;-1.04;78.19
70302;BME280;57706;56.326;43.882;2022-12-18T08:30:03;99771.19;;;-1.02;79.55
70302;BME280;57706;56.326;43.882;2022-12-18T08:32:29;99768.63;;;-1.02;78.14
70302;BME280;57706;56.326;43.882;2022-12-18T08:34:55;99775.81;;;-0.94;80.38
70302;BME280;57706;56.326;43.882;2022-12-18T08:37:21;99784.19;;;-0.91;79.50
70302;BME280;57706;56.326;43.882;2022-12-18T08:39:47;99787.59;;;-1.03;77.36
70302;BME280;57706;56.326;43.882;2022-12-18T08:42:12;99786.13;;;-1.07;79.49
70302;BME280;57706;56.326;43.882;2022-12-18T08:44:57;99793.38;;;-0.87;80.99
70302;BME280;57706;56.326;43.882;2022-12-18T08:47:22;99800.56;;;-1.18;78.06
70302;BME280;57706;56.326;43.882;2022-12-18T08:49:48;99800.38;;;-1.15;77.67
70302;BME280;57706;56.326;43.882;2022-12-18T08:52:14;99807.59;;;-1.20;78.76
70302;BME280;57706;56.326;43.882;2022-12-18T08:54:40;99790.75;;;-1.13;77.77
70302;BME280;57706;56.326;43.882;2022-12-18T08:57:05;99793.25;;;-1.24;77.07
70302;BME280;57706;56.326;43.882;2022-12-18T08:59:32;99791.69;;;-1.14;77.90
70302;BME280;57706;56.326;43.882;2022-12-18T09:01:57;99787.59;;;-1.03;78.65
70302;BME280;57706;56.326;43.882;2022-12-18T09:04:23;99787.59;;;-0.90;78.03
70302;BME280;57706;56.326;43.882;2022-12-18T09:06:49;99791.09;;;-1.04;76.00
70302;BME280;57706;56.326;43.882;2022-12-18T09:09:15;99790.03;;;-1.15;75.85
70302;BME280;57706;56.326;43.882;2022-12-18T09:11:41;99798.03;;;-0.92;78.25
70302;BME280;57706;56.326;43.882;2022-12-18T09:14:07;99794.28;;;-0.88;78.16
70302;BME280;57706;56.326;43.882;2022-12-18T09:16:34;99802.03;;;-0.88;76.49
70302;BME280;57706;56.326;43.882;2022-12-18T09:19:03;99791.53;;;-0.98;76.68
70302;BME280;57706;56.326;43.882;2022-12-18T09:21:32;99791.13;;;-0.78;79.54
70302;BME280;57706;56.326;43.882;2022-12-18T09:23:58;99796.06;;;-0.75;78.28
70302;BME280;57706;56.326;43.882;2022-12-18T09:26:25;99791.13;;;-0.78;78.28
70302;BME280;57706;56.326;43.882;2022-12-18T09:28:52;99802.66;;;-0.97;76.62
70302;BME280;57706;56.326;43.882;2022-12-18T09:31:21;99797.63;;;-0.99;76.65
70302;BME280;57706;56.326;43.882;2022-12-18T09:33:47;99803.19;;;-0.92;77.33
70302;BME280;57706;56.326;43.882;2022-12-18T09:36:15;99797.91;;;-1.03;76.55
70302;BME280;57706;56.326;43.882;2022-12-18T09:38:42;99798.09;;;-0.80;79.38
70302;BME280;57706;56.326;43.882;2022-12-18T09:41:42;99801.00;;;-0.72;78.98
70302;BME280;57706;56.326;43.882;2022-12-18T09:44:29;99797.59;;;-0.73;77.06
70302;BME280;57706;56.326;43.882;2022-12-18T09:47:15;99795.03;;;-0.60;78.75
70302;BME280;57706;56.326;43.882;2022-12-18T09:49:45;99791.28;;;-0.56;79.21
70302;BME280;57706;56.326;43.882;2022-12-18T09:52:19;99790.25;;;-0.66;75.78
70302;BME280;57706;56.326;43.882;2022-12-18T09:54:51;99791.94;;;-0.91;74.90
70302;BME280;57706;56.326;43.882;2022-12-18T09:57:22;99798.53;;;-0.87;76.17
70302;BME280;57706;56.326;43.882;2022-12-18T10:00:04;99803.28;;;-0.80;75.23
70302;BME280;57706;56.326;43.882;2022-12-18T10:02:37;99814.44;;;-0.93;74.57
70302;BME280;57706;56.326;43.882;2022-12-18T10:05:06;99800.19;;;-0.73;77.78
70302;BME280;57706;56.326;43.882;2022-12-18T10:10:34;99795.84;;;-0.72;78.08
70302;BME280;57706;56.326;43.882;2022-12-18T10:16:03;99808.25;;;-0.77;76.72
70302;BME280;57706;56.326;43.882;2022-12-18T10:18:50;99810.69;;;-0.63;78.04
70302;BME280;57706;56.326;43.882;2022-12-18T10:24:25;99820.00;;;-0.86;76.41
70302;BME280;57706;56.326;43.882;2022-12-18T10:26:58;99826.72;;;-0.84;77.03
70302;BME280;57706;56.326;43.882;2022-12-18T10:29:25;99829.28;;;-0.84;77.02
70302;BME280;57706;56.326;43.882;2022-12-18T10:31:51;99839.38;;;-0.93;77.61
70302;BME280;57706;56.326;43.882;2022-12-18T10:34:17;99842.72;;;-0.91;76.29
70302;BME280;57706;56.326;43.882;2022-12-18T10:36:43;99842.59;;;-0.90;77.51
70302;BME280;57706;56.326;43.882;2022-12-18T10:39:34;99852.78;;;-1.14;75.19
70302;BME280;57706;56.326;43.882;2022-12-18T10:42:18;99855.69;;;-1.06;75.58
70302;BME280;57706;56.326;43.882;2022-12-18T10:44:45;99849.19;;;-1.12;74.05
70302;BME280;57706;56.326;43.882;2022-12-18T10:47:14;99852.59;;;-0.98;77.21
70302;BME280;57706;56.326;43.882;2022-12-18T10:49:53;99856.31;;;-1.02;76.83
70302;BME280;57706;56.326;43.882;2022-12-18T10:52:22;99863.63;;;-0.96;76.66
70302;BME280;57706;56.326;43.882;2022-12-18T10:54:51;99865.56;;;-1.13;74.22
70302;BME280;57706;56.326;43.882;2022-12-18T10:57:34;99871.81;;;-1.02;77.22
70302;BME280;57706;56.326;43.882;2022-12-18T11:00:21;99878.19;;;-1.08;76.39
70302;BME280;57706;56.326;43.882;2022-12-18T11:03:45;99863.72;;;-1.11;77.31
70302;BME280;57706;56.326;43.882;2022-12-18T11:06:16;99869.88;;;-1.26;74.78
70302;BME280;57706;56.326;43.882;2022-12-18T11:08:46;99861.44;;;-1.28;75.90
70302;BME280;57706;56.326;43.882;2022-12-18T11:11:23;99864.09;;;-1.30;75.96
70302;BME280;57706;56.326;43.882;2022-12-18T11:16:26;99877.28;;;-1.34;77.37
70302;BME280;57706;56.326;43.882;2022-12-18T11:18:52;99896.34;;;-1.37;74.50
70302;BME280;57706;56.326;43.882;2022-12-18T11:21:18;99882.50;;;-1.63;72.82
70302;BME280;57706;56.326;43.882;2022-12-18T11:23:50;99890.94;;;-1.47;74.56
70302;BME280;57706;56.326;43.882;2022-12-18T11:26:16;99893.09;;;-1.54;75.03
70302;BME280;57706;56.326;43.882;2022-12-18T11:28:51;99892.13;;;-1.38;76.88
70302;BME280;57706;56.326;43.882;2022-12-18T11:31:26;99900.53;;;-1.49;74.87
70302;BME280;57706;56.326;43.882;2022-12-18T11:36:42;99909.50;;;-1.27;79.05
70302;BME280;57706;56.326;43.882;2022-12-18T11:39:19;99915.91;;;-1.20;77.84
70302;BME280;57706;56.326;43.882;2022-12-18T11:41:51;99922.84;;;-1.35;74.97
70302;BME280;57706;56.326;43.882;2022-12-18T11:44:42;99920.94;;;-1.46;76.27
70302;BME280;57706;56.326;43.882;2022-12-18T11:47:37;99918.81;;;-1.96;73.02
70302;BME280;57706;56.326;43.882;2022-12-18T11:50:14;99931.81;;;-1.83;74.89
70302;BME280;57706;56.326;43.882;2022-12-18T11:52:41;99941.25;;;-1.69;75.95
70302;BME280;57706;56.326;43.882;2022-12-18T11:55:12;99947.72;;;-1.76;72.96
70302;BME280;57706;56.326;43.882;2022-12-18T12:00:18;99958.00;;;-1.61;75.03
70302;BME280;57706;56.326;43.882;2022-12-18T12:05:47;99957.81;;;-1.87;72.32
70302;BME280;57706;56.326;43.882;2022-12-18T12:20:02;99992.78;;;-1.98;71.34
70302;BME280;57706;56.326;43.882;2022-12-18T12:22:45;100001.16;;;-2.09;72.69
70302;BME280;57706;56.326;43.882;2022-12-18T12:25:20;100008.34;;;-1.85;75.26
70302;BME280;57706;56.326;43.882;2022-12-18T12:31:05;100016.84;;;-1.83;76.25
70302;BME280;57706;56.326;43.882;2022-12-18T12:33:37;100021.34;;;-1.86;73.32
70302;BME280;57706;56.326;43.882;2022-12-18T12:36:23;100035.28;;;-2.05;71.01
70302;BME280;57706;56.326;43.882;2022-12-18T12:38:56;100038.22;;;-1.97;73.93
70302;BME280;57706;56.326;43.882;2022-12-18T12:41:30;100049.56;;;-1.99;74.20
70302;BME280;57706;56.326;43.882;2022-12-18T12:44:49;100060.34;;;-1.92;74.73
70302;BME280;57706;56.326;43.882;2022-12-18T12:47:20;100071.56;;;-1.94;76.76
70302;BME280;57706;56.326;43.882;2022-12-18T12:49:48;100074.28;;;-2.11;72.83
70302;BME280;57706;56.326;43.882;2022-12-18T12:52:20;100086.06;;;-2.07;76.19
70302;BME280;57706;56.326;43.882;2022-12-18T12:54:51;100104.75;;;-2.03;77.45
70302;BME280;57706;56.326;43.882;2022-12-18T12:57:40;100097.47;;;-2.11;75.88
70302;BME280;57706;56.326;43.882;2022-12-18T13:00:10;100098.34;;;-2.12;77.01
70302;BME280;57706;56.326;43.882;2022-12-18T13:07:55;100101.25;;;-2.33;76.47
70302;BME280;57706;56.326;43.882;2022-12-18T13:10:26;100110.50;;;-2.61;74.70
70302;BME280;57706;56.326;43.882;2022-12-18T13:13:08;100112.00;;;-2.57;75.79
70302;BME280;57706;56.326;43.882;2022-12-18T13:20:46;100136.81;;;-2.56;75.88
70302;BME280;57706;56.326;43.882;2022-12-18T13:25:59;100145.78;;;-2.63;74.95
70302;BME280;57706;56.326;43.882;2022-12-18T13:36:40;100166.53;;;-2.50;76.95
70302;BME280;57706;56.326;43.882;2022-12-18T13:41:45;100168.19;;;-2.65;77.50
70302;BME280;57706;56.326;43.882;2022-12-18T13:44:13;100163.22;;;-2.68;76.79
70302;BME280;57706;56.326;43.882;2022-12-18T13:46:47;100161.47;;;-2.84;74.22
70302;BME280;57706;56.326;43.882;2022-12-18T13:51:45;100182.28;;;-2.72;77.42
70302;BME280;57706;56.326;43.882;2022-12-18T13:54:28;100186.53;;;-2.71;76.57
70302;BME280;57706;56.326;43.882;2022-12-18T13:56:56;100186.03;;;-2.78;76.72
70302;BME280;57706;56.326;43.882;2022-12-18T13:59:33;100195.34;;;-2.75;76.51
70302;BME280;57706;56.326;43.882;2022-12-18T14:02:05;100198.22;;;-2.82;76.64
70302;BME280;57706;56.326;43.882;2022-12-18T14:04:50;100209.91;;;-2.92;74.49
70302;BME280;57706;56.326;43.882;2022-12-18T14:07:28;100210.97;;;-2.96;74.55
70302;BME280;57706;56.326;43.882;2022-12-18T14:09:56;100211.63;;;-2.93;75.84
70302;BME280;57706;56.326;43.882;2022-12-18T14:12:45;100230.91;;;-2.84;76.89
70302;BME280;57706;56.326;43.882;2022-12-18T14:20:31;100247.13;;;-2.99;75.05
70302;BME280;57706;56.326;43.882;2022-12-18T14:22:58;100250.47;;;-2.97;75.00
70302;BME280;57706;56.326;43.882;2022-12-18T14:25:27;100254.84;;;-2.99;74.52
70302;BME280;57706;56.326;43.882;2022-12-18T14:30:38;100261.94;;;-3.38;73.21
70302;BME280;57706;56.326;43.882;2022-12-18T14:33:09;100261.84;;;-3.37;75.91
70302;BME280;57706;56.326;43.882;2022-12-18T14:35:42;100266.84;;;-3.34;76.20
70302;BME280;57706;56.326;43.882;2022-12-18T14:38:22;100272.25;;;-3.57;71.97
70302;BME280;57706;56.326;43.882;2022-12-18T14:40:57;100270.38;;;-3.71;71.61
70302;BME280;57706;56.326;43.882;2022-12-18T14:43:23;100269.06;;;-3.63;72.42
70302;BME280;57706;56.326;43.882;2022-12-18T14:45:49;100276.78;;;-3.45;76.64
70302;BME280;57706;56.326;43.882;2022-12-18T14:48:18;100277.19;;;-3.35;75.13